createdAt,value
2023-05-23T00:00:38.347Z,22.13
2023-05-23T00:03:11.152Z,20.55
2023-05-23T00:05:43.758Z,19.27
2023-05-23T00:08:16.286Z,19.88
2023-05-23T00:10:48.648Z,21.27
2023-05-23T00:13:20.638Z,20.05
2023-05-23T00:15:53.244Z,21.27
2023-05-23T00:18:25.602Z,22.95
2023-05-23T00:20:59.381Z,17.95
2023-05-23T00:23:33.856Z,19.77
2023-05-23T00:26:06.530Z,20.02
2023-05-23T00:28:38.822Z,19.92
2023-05-23T00:31:11.360Z,21.02
2023-05-23T00:33:43.317Z,20.05
2023-05-23T00:36:15.856Z,20.30
2023-05-23T00:38:48.149Z,22.05
2023-05-23T00:41:21.317Z,21.17
2023-05-23T00:43:53.331Z,19.35
2023-05-23T00:46:27.088Z,21.65
2023-05-23T00:48:59.210Z,21.90
2023-05-23T00:51:32.164Z,20.55
2023-05-23T00:54:06.156Z,19.90
2023-05-23T00:56:39.909Z,19.65
2023-05-23T00:59:12.824Z,19.52
2023-05-23T01:01:47.579Z,19.57
2023-05-23T01:04:20.232Z,19.10
2023-05-23T01:06:57.309Z,19.42
2023-05-23T01:09:30.099Z,20.50
2023-05-23T01:12:17.635Z,21.33
2023-05-23T01:15:02.431Z,18.90
2023-05-23T01:18:14.720Z,19.50
2023-05-23T01:20:54.735Z,18.42
2023-05-23T01:24:06.093Z,22.52
2023-05-23T01:27:08.589Z,19.67
2023-05-23T01:29:47.408Z,19.07
2023-05-23T01:32:22.943Z,20.80
2023-05-23T01:34:56.175Z,23.60
2023-05-23T01:37:29.784Z,17.35
2023-05-23T01:40:02.568Z,19.05
2023-05-23T01:42:34.595Z,18.93
2023-05-23T01:45:08.539Z,18.30
2023-05-23T01:47:41.851Z,21.02
2023-05-23T01:50:21.286Z,19.90
2023-05-23T01:52:54.724Z,19.35
2023-05-23T01:55:28.214Z,18.60
2023-05-23T01:58:01.834Z,21.33
2023-05-23T02:00:35.140Z,21.23
2023-05-23T02:03:08.492Z,20.70
2023-05-23T02:05:41.634Z,18.17
2023-05-23T02:08:14.693Z,20.77
2023-05-23T02:10:46.623Z,20.77
2023-05-23T02:13:18.785Z,19.30
2023-05-23T02:15:51.635Z,21.83
2023-05-23T02:18:26.256Z,18.35
2023-05-23T02:20:59.034Z,22.43
2023-05-23T02:23:31.223Z,17.67
2023-05-23T02:26:04.174Z,21.15
2023-05-23T02:28:36.544Z,18.42
2023-05-23T02:31:08.927Z,19.20
2023-05-23T02:33:41.332Z,17.23
2023-05-23T02:36:13.919Z,20.45
2023-05-23T02:38:45.850Z,18.38
2023-05-23T02:41:18.609Z,19.13
2023-05-23T02:43:50.571Z,17.88
2023-05-23T02:46:24.018Z,19.20
2023-05-23T02:48:56.117Z,19.27
2023-05-23T02:51:31.208Z,18.65
2023-05-23T02:54:03.916Z,18.05
2023-05-23T02:59:35.785Z,19.87
2023-05-23T03:02:08.558Z,17.48
2023-05-23T03:04:40.998Z,17.83
2023-05-23T03:07:24.516Z,21.55
2023-05-23T03:10:01.317Z,27.25
2023-05-23T03:12:34.213Z,23.00
2023-05-23T03:15:07.624Z,19.85
2023-05-23T03:17:44.660Z,17.13
2023-05-23T03:20:17.259Z,19.80
2023-05-23T03:22:49.453Z,18.92
2023-05-23T03:25:22.401Z,19.43
2023-05-23T03:27:54.564Z,20.35
2023-05-23T03:30:27.761Z,18.23
2023-05-23T03:33:00.026Z,19.45
2023-05-23T03:35:34.812Z,22.67
2023-05-23T03:38:08.124Z,23.27
2023-05-23T03:40:40.240Z,19.77
2023-05-23T03:46:06.528Z,21.70
2023-05-23T03:48:39.531Z,22.08
2023-05-23T03:51:14.701Z,19.37
2023-05-23T03:53:47.810Z,21.45
2023-05-23T03:56:20.360Z,21.63
2023-05-23T03:58:53.356Z,24.20
2023-05-23T04:01:25.488Z,22.65
2023-05-23T04:03:58.617Z,21.17
2023-05-23T04:06:32.680Z,24.52
2023-05-23T04:09:06.668Z,23.70
2023-05-23T04:11:44.375Z,29.60
2023-05-23T04:14:17.526Z,23.27
2023-05-23T04:16:50.658Z,18.80
2023-05-23T04:19:23.421Z,18.25
2023-05-23T04:21:59.466Z,19.15
2023-05-23T04:24:31.817Z,19.17
2023-05-23T04:27:05.861Z,19.00
2023-05-23T04:29:38.254Z,20.40
2023-05-23T04:32:11.769Z,20.95
2023-05-23T04:34:44.322Z,20.83
2023-05-23T04:37:17.811Z,22.48
2023-05-23T04:39:49.924Z,22.23
2023-05-23T04:42:52.157Z,20.20
2023-05-23T04:45:36.796Z,21.38
2023-05-23T04:48:21.746Z,19.98
2023-05-23T04:50:56.570Z,23.58
2023-05-23T04:53:28.775Z,20.98
2023-05-23T04:56:03.025Z,22.07
2023-05-23T04:58:37.802Z,20.40
2023-05-23T05:01:14.001Z,22.80
2023-05-23T05:03:47.938Z,21.95
2023-05-23T05:06:21.727Z,20.15
2023-05-23T05:08:54.363Z,23.10
2023-05-23T05:11:27.841Z,20.50
2023-05-23T05:14:00.451Z,22.75
2023-05-23T05:16:36.899Z,22.73
2023-05-23T05:19:09.839Z,23.00
2023-05-23T05:21:41.912Z,22.80
2023-05-23T05:24:16.055Z,23.30
2023-05-23T05:26:48.545Z,22.25
2023-05-23T05:29:24.780Z,20.42
2023-05-23T05:31:57.240Z,23.02
2023-05-23T05:34:31.420Z,24.00
2023-05-23T05:37:04.836Z,22.95
2023-05-23T05:40:06.140Z,22.45
2023-05-23T05:42:40.437Z,23.00
2023-05-23T05:45:12.745Z,22.38
2023-05-23T05:47:47.667Z,27.70
2023-05-23T05:50:20.405Z,27.00
2023-05-23T05:52:54.886Z,34.25
2023-05-23T05:55:27.619Z,37.38
2023-05-23T06:01:00.994Z,41.30
2023-05-23T06:03:35.131Z,39.92
2023-05-23T06:06:08.914Z,43.50
2023-05-23T06:08:44.505Z,35.88
2023-05-23T06:11:21.098Z,40.90
2023-05-23T06:13:54.766Z,40.70
2023-05-23T06:16:29.985Z,41.35
2023-05-23T06:19:02.697Z,44.75
2023-05-23T06:21:36.530Z,38.72
2023-05-23T06:27:05.241Z,42.37
2023-05-23T06:29:40.678Z,41.22
2023-05-23T06:32:12.757Z,44.17
2023-05-23T06:34:48.640Z,41.78
2023-05-23T06:37:20.850Z,43.78
2023-05-23T06:39:54.733Z,49.23
2023-05-23T06:42:27.326Z,44.53
2023-05-23T06:45:23.520Z,43.20
2023-05-23T06:47:55.443Z,44.67
2023-05-23T06:50:28.621Z,41.17
2023-05-23T06:53:01.687Z,41.43
2023-05-23T06:55:33.972Z,43.30
2023-05-23T06:58:27.277Z,46.53
2023-05-23T07:01:02.156Z,42.75
2023-05-23T07:03:41.658Z,47.28
2023-05-23T07:06:14.198Z,41.70
2023-05-23T07:08:47.172Z,46.85
2023-05-23T07:11:22.239Z,40.72
2023-05-23T07:14:01.260Z,46.53
2023-05-23T07:16:46.137Z,48.50
2023-05-23T07:19:18.839Z,45.07
2023-05-23T07:21:57.462Z,44.53
2023-05-23T07:24:30.139Z,43.60
2023-05-23T07:27:02.977Z,45.05
2023-05-23T07:29:35.387Z,43.55
2023-05-23T07:32:08.244Z,43.70
2023-05-23T07:34:41.220Z,44.63
2023-05-23T07:37:14.325Z,48.38
2023-05-23T07:39:49.076Z,48.97
2023-05-23T07:42:21.744Z,46.92
2023-05-23T07:44:54.455Z,47.93
2023-05-23T07:47:27.969Z,50.95
2023-05-23T07:50:02.252Z,47.53
2023-05-23T07:52:36.628Z,50.03
2023-05-23T07:55:10.985Z,46.83
2023-05-23T07:57:44.061Z,49.97
2023-05-23T08:00:17.588Z,48.85
2023-05-23T08:02:50.590Z,46.60
2023-05-23T08:05:29.186Z,45.92
2023-05-23T08:08:03.219Z,45.85
2023-05-23T08:10:36.257Z,43.20
2023-05-23T08:13:14.685Z,44.38
2023-05-23T08:16:04.779Z,45.33
2023-05-23T08:18:38.608Z,48.53
2023-05-23T08:21:11.656Z,45.05
2023-05-23T08:23:44.428Z,44.93
2023-05-23T08:26:16.705Z,44.60
2023-05-23T08:28:52.817Z,44.90
2023-05-23T08:31:27.890Z,47.53
2023-05-23T08:34:00.451Z,53.15
2023-05-23T08:36:36.716Z,51.67
2023-05-23T08:39:11.931Z,51.95
2023-05-23T08:41:56.129Z,51.75
2023-05-23T08:44:28.364Z,49.75
2023-05-23T08:47:06.177Z,46.95
2023-05-23T08:49:56.556Z,49.57
2023-05-23T08:52:34.199Z,49.97
2023-05-23T08:55:08.733Z,51.72
2023-05-23T08:57:44.128Z,52.95
2023-05-23T09:00:35.258Z,45.83
2023-05-23T09:03:10.083Z,49.23
2023-05-23T09:05:54.966Z,47.30
2023-05-23T09:08:28.750Z,47.08
2023-05-23T09:11:06.080Z,48.83
2023-05-23T09:13:42.686Z,50.08
2023-05-23T09:16:19.515Z,47.37
2023-05-23T09:18:58.854Z,48.78
2023-05-23T09:21:34.396Z,42.90
2023-05-23T09:24:12.654Z,46.75
2023-05-23T09:26:48.708Z,54.17
2023-05-23T09:29:21.696Z,41.10
2023-05-23T09:32:06.459Z,45.65
2023-05-23T09:35:00.418Z,43.78
2023-05-23T09:37:39.599Z,46.58
2023-05-23T09:40:14.961Z,47.38
2023-05-23T09:42:54.749Z,43.07
2023-05-23T09:45:31.300Z,46.42
2023-05-23T09:48:14.445Z,47.95
2023-05-23T09:50:51.364Z,46.28
2023-05-23T09:53:25.108Z,47.35
2023-05-23T09:56:25.069Z,48.30
2023-05-23T09:58:58.966Z,50.85
2023-05-23T10:01:33.687Z,46.33
2023-05-23T10:04:06.262Z,42.97
2023-05-23T10:06:50.252Z,42.58
2023-05-23T10:09:25.187Z,40.10
2023-05-23T10:12:19.136Z,42.30
2023-05-23T10:15:01.863Z,38.83
2023-05-23T10:17:54.350Z,41.75
2023-05-23T10:20:32.128Z,39.50
2023-05-23T10:23:05.454Z,37.10
2023-05-23T10:25:38.417Z,37.13
2023-05-23T10:28:11.646Z,34.13
2023-05-23T10:30:45.232Z,33.33
2023-05-23T10:33:18.521Z,32.42
2023-05-23T10:35:57.799Z,35.77
2023-05-23T10:38:56.324Z,31.52
2023-05-23T10:41:54.297Z,36.47
2023-05-23T10:44:30.947Z,35.30
2023-05-23T10:47:05.330Z,34.92
2023-05-23T10:49:56.596Z,31.60
2023-05-23T10:52:41.420Z,30.65
2023-05-23T10:55:20.383Z,32.78
2023-05-23T10:58:21.607Z,33.28
2023-05-23T11:00:56.282Z,27.63
2023-05-23T11:03:36.845Z,31.47
2023-05-23T11:06:45.249Z,34.10
2023-05-23T11:09:19.563Z,31.48
2023-05-23T11:11:52.804Z,28.80
2023-05-23T11:14:33.974Z,27.83
2023-05-23T11:17:33.722Z,30.50
2023-05-23T11:20:07.801Z,26.73
2023-05-23T11:22:40.465Z,29.63
2023-05-23T11:25:12.680Z,25.23
2023-05-23T11:27:47.229Z,24.20
2023-05-23T11:30:19.323Z,25.80
2023-05-23T11:32:54.731Z,27.17
2023-05-23T11:35:27.789Z,24.98
2023-05-23T11:38:01.160Z,26.83
2023-05-23T11:40:42.029Z,29.13
2023-05-23T11:43:17.122Z,30.63
2023-05-23T11:45:49.574Z,29.98
2023-05-23T11:48:22.335Z,23.98
2023-05-23T11:50:54.619Z,28.67
2023-05-23T11:53:28.472Z,28.52
2023-05-23T11:56:03.298Z,25.77
2023-05-23T11:58:39.890Z,23.95
2023-05-23T12:01:13.530Z,25.60
2023-05-23T12:03:54.093Z,28.00
2023-05-23T12:06:26.305Z,23.00
2023-05-23T12:09:00.280Z,25.00
2023-05-23T12:11:32.690Z,23.00
2023-05-23T12:14:07.018Z,20.90
2023-05-23T12:16:39.591Z,24.98
2023-05-23T12:19:12.962Z,26.63
2023-05-23T12:21:47.998Z,21.67
2023-05-23T12:24:22.804Z,26.52
2023-05-23T12:26:58.594Z,23.77
2023-05-23T12:29:35.089Z,21.63
2023-05-23T12:32:07.820Z,24.60
2023-05-23T12:34:44.034Z,25.03
2023-05-23T12:37:20.570Z,27.23
2023-05-23T12:39:52.812Z,26.50
2023-05-23T12:42:25.412Z,23.67
2023-05-23T12:44:58.365Z,25.52
2023-05-23T12:47:31.466Z,21.13
2023-05-23T12:50:04.216Z,21.85
2023-05-23T12:52:37.594Z,23.90
2023-05-23T12:55:10.755Z,19.80
2023-05-23T12:57:43.340Z,20.88
2023-05-23T13:00:15.666Z,22.07
2023-05-23T13:02:48.455Z,19.15
2023-05-23T13:05:22.440Z,19.08
2023-05-23T13:07:55.919Z,17.98
2023-05-23T13:10:30.145Z,18.75
2023-05-23T13:13:04.706Z,20.13
2023-05-23T13:15:37.347Z,17.42
2023-05-23T13:18:10.039Z,16.95
2023-05-23T13:20:42.415Z,16.45
2023-05-23T13:23:14.923Z,17.88
2023-05-23T13:25:46.881Z,23.03
2023-05-23T13:28:20.154Z,14.32
2023-05-23T13:30:52.172Z,16.42
2023-05-23T13:33:25.247Z,16.73
2023-05-23T13:35:57.725Z,16.45
2023-05-23T13:38:32.368Z,14.40
2023-05-23T13:41:04.335Z,16.17
2023-05-23T13:43:37.200Z,16.70
2023-05-23T13:46:09.212Z,14.18
2023-05-23T13:48:42.063Z,15.57
2023-05-23T13:51:14.477Z,19.13
2023-05-23T13:53:46.868Z,15.85
2023-05-23T13:56:18.876Z,14.63
2023-05-23T13:58:51.451Z,14.88
2023-05-23T14:01:24.762Z,17.05
2023-05-23T14:03:57.123Z,15.07
2023-05-23T14:06:29.722Z,16.20
2023-05-23T14:09:01.741Z,12.80
2023-05-23T14:11:34.370Z,16.30
2023-05-23T14:14:06.400Z,15.00
2023-05-23T14:16:39.050Z,14.30
2023-05-23T14:19:11.066Z,17.92
2023-05-23T14:21:44.953Z,17.05
2023-05-23T14:24:17.637Z,14.82
2023-05-23T14:26:50.520Z,13.90
2023-05-23T14:29:22.592Z,13.13
2023-05-23T14:31:55.353Z,13.13
2023-05-23T14:34:27.739Z,14.05
2023-05-23T14:37:01.239Z,14.02
2023-05-23T14:39:33.362Z,13.77
2023-05-23T14:42:06.744Z,12.13
2023-05-23T14:44:38.689Z,12.07
2023-05-23T14:47:11.267Z,12.65
2023-05-23T14:49:43.252Z,12.52
2023-05-23T14:52:17.801Z,11.98
2023-05-23T14:54:49.829Z,12.57
2023-05-23T14:57:22.924Z,10.52
2023-05-23T14:59:54.904Z,11.82
2023-05-23T15:02:30.167Z,11.82
2023-05-23T15:05:02.296Z,12.02
2023-05-23T15:07:35.742Z,11.20
2023-05-23T15:10:09.117Z,13.50
2023-05-23T15:12:42.748Z,12.32
2023-05-23T15:15:16.808Z,11.52
2023-05-23T15:17:51.323Z,10.77
2023-05-23T15:20:23.414Z,9.60
2023-05-23T15:22:56.275Z,11.18
2023-05-23T15:25:46.478Z,12.85
2023-05-23T15:28:20.844Z,12.48
2023-05-23T15:30:54.662Z,12.60
2023-05-23T15:33:27.329Z,10.87
2023-05-23T15:36:00.183Z,11.82
2023-05-23T15:38:32.767Z,12.75
2023-05-23T15:41:06.285Z,11.27
2023-05-23T15:43:39.459Z,11.18
2023-05-23T15:46:11.852Z,10.60
2023-05-23T15:48:43.794Z,10.60
2023-05-23T15:51:19.557Z,10.68
2023-05-23T15:56:28.351Z,9.88
2023-05-23T15:59:00.329Z,8.63
2023-05-23T16:04:25.551Z,9.65
2023-05-23T16:06:57.472Z,9.80
2023-05-23T16:09:29.986Z,11.25
2023-05-23T16:12:02.389Z,9.17
2023-05-23T16:14:34.353Z,10.20
2023-05-23T16:17:08.020Z,9.95
2023-05-23T16:19:40.081Z,8.75
2023-05-23T16:22:12.695Z,8.88
2023-05-23T16:24:44.635Z,7.90
2023-05-23T16:27:17.625Z,8.77
2023-05-23T16:29:49.959Z,8.77
2023-05-23T16:32:22.548Z,9.50
2023-05-23T16:34:54.872Z,8.48
2023-05-23T16:37:27.787Z,9.10
2023-05-23T16:39:59.867Z,8.88
2023-05-23T16:42:32.487Z,7.47
2023-05-23T16:45:05.593Z,7.80
2023-05-23T16:47:38.330Z,9.13
2023-05-23T16:50:11.076Z,9.07
2023-05-23T16:52:45.060Z,8.90
2023-05-23T16:55:17.381Z,8.65
2023-05-23T16:57:49.867Z,8.00
2023-05-23T17:00:21.914Z,9.02
2023-05-23T17:02:54.651Z,8.17
2023-05-23T17:05:26.629Z,8.77
2023-05-23T17:07:59.531Z,10.18
2023-05-23T17:10:31.928Z,7.30
2023-05-23T17:13:04.700Z,7.97
2023-05-23T17:15:37.032Z,7.37
2023-05-23T17:18:09.709Z,7.85
2023-05-23T17:20:41.648Z,7.20
2023-05-23T17:23:14.544Z,6.53
2023-05-23T17:25:46.563Z,6.97
2023-05-23T17:28:19.511Z,8.33
2023-05-23T17:30:53.054Z,6.85
2023-05-23T17:33:25.667Z,6.53
2023-05-23T17:35:57.648Z,6.38
2023-05-23T17:38:30.153Z,5.97
2023-05-23T17:41:02.071Z,7.20
2023-05-23T17:43:35.005Z,5.75
2023-05-23T17:46:07.455Z,6.32
2023-05-23T17:51:18.127Z,6.68
2023-05-23T17:53:53.895Z,6.80
2023-05-23T17:56:25.935Z,7.45
2023-05-23T17:58:58.441Z,9.45
2023-05-23T18:01:30.455Z,8.27
2023-05-23T18:04:03.113Z,7.13
2023-05-23T18:06:35.740Z,6.67
2023-05-23T18:09:10.018Z,9.27
2023-05-23T18:11:42.849Z,11.05
2023-05-23T18:14:15.771Z,7.32
2023-05-23T18:16:47.720Z,8.48
2023-05-23T18:19:20.532Z,7.70
2023-05-23T18:21:52.520Z,6.45
2023-05-23T18:24:24.915Z,7.38
2023-05-23T18:26:57.958Z,8.43
2023-05-23T18:29:30.945Z,7.57
2023-05-23T18:32:03.540Z,7.00
2023-05-23T18:34:36.171Z,6.53
2023-05-23T18:37:08.211Z,7.18
2023-05-23T18:39:40.594Z,9.27
2023-05-23T18:42:12.542Z,7.90
2023-05-23T18:44:44.962Z,9.83
2023-05-23T18:47:16.954Z,8.57
2023-05-23T18:49:50.050Z,7.50
2023-05-23T18:52:22.012Z,7.95
2023-05-23T18:54:54.772Z,8.25
2023-05-23T18:57:27.141Z,7.33
2023-05-23T18:59:59.811Z,7.38
2023-05-23T19:02:32.192Z,9.02
2023-05-23T19:05:05.836Z,8.50
2023-05-23T19:07:38.073Z,8.07
2023-05-23T19:10:12.344Z,8.20
2023-05-23T19:12:44.428Z,12.85
2023-05-23T19:15:17.015Z,8.60
2023-05-23T19:17:49.376Z,7.88
2023-05-23T19:20:22.381Z,9.68
2023-05-23T19:22:54.629Z,8.03
2023-05-23T19:25:27.290Z,7.45
2023-05-23T19:27:59.259Z,9.80
2023-05-23T19:30:31.661Z,8.50
2023-05-23T19:33:04.490Z,9.52
2023-05-23T19:35:37.591Z,9.17
2023-05-23T19:38:09.599Z,9.25
2023-05-23T19:40:42.710Z,9.35
2023-05-23T19:43:14.982Z,10.32
2023-05-23T19:45:47.591Z,10.77
2023-05-23T19:48:19.660Z,9.27
2023-05-23T19:50:52.415Z,10.77
2023-05-23T19:53:24.467Z,8.48
2023-05-23T19:55:57.842Z,9.77
2023-05-23T19:58:29.974Z,10.30
2023-05-23T20:01:03.340Z,10.33
2023-05-23T20:03:35.366Z,8.30
2023-05-23T20:06:07.670Z,9.75
2023-05-23T20:08:39.626Z,10.93
2023-05-23T20:11:12.877Z,11.40
2023-05-23T20:13:44.922Z,9.70
2023-05-23T20:16:17.959Z,10.05
2023-05-23T20:18:50.013Z,9.63
2023-05-23T20:21:22.801Z,12.60
2023-05-23T20:23:54.775Z,10.52
2023-05-23T20:26:27.651Z,9.60
2023-05-23T20:28:59.921Z,11.27
2023-05-23T20:31:32.658Z,12.93
2023-05-23T20:34:04.660Z,11.43
2023-05-23T20:36:37.431Z,11.73
2023-05-23T20:39:10.372Z,11.07
2023-05-23T20:41:43.704Z,10.82
2023-05-23T20:44:18.501Z,10.45
2023-05-23T20:46:51.935Z,11.50
2023-05-23T20:49:24.808Z,12.45
2023-05-23T20:51:57.931Z,12.10
2023-05-23T20:54:29.888Z,12.27
2023-05-23T20:57:02.829Z,13.25
2023-05-23T20:59:34.817Z,10.18
2023-05-23T21:02:08.375Z,11.68
2023-05-23T21:04:40.944Z,10.80
2023-05-23T21:07:13.831Z,12.27
2023-05-23T21:09:46.382Z,12.82
2023-05-23T21:12:18.927Z,13.15
2023-05-23T21:14:50.922Z,11.63
2023-05-23T21:17:24.106Z,12.40
2023-05-23T21:19:56.074Z,14.35
2023-05-23T21:22:28.725Z,11.57
2023-05-23T21:25:00.629Z,11.60
2023-05-23T21:27:33.119Z,12.77
2023-05-23T21:30:06.592Z,11.43
2023-05-23T21:32:39.188Z,12.90
2023-05-23T21:35:11.388Z,11.73
2023-05-23T21:37:43.935Z,10.82
2023-05-23T21:40:15.962Z,16.13
2023-05-23T21:42:48.568Z,13.37
2023-05-23T21:45:20.580Z,12.35
2023-05-23T21:47:53.140Z,11.13
2023-05-23T21:50:25.092Z,11.02
2023-05-23T21:56:05.986Z,14.40
2023-05-23T21:58:38.710Z,13.20
2023-05-23T22:01:10.877Z,14.02
2023-05-23T22:03:43.532Z,13.68
2023-05-23T22:06:16.301Z,13.38
2023-05-23T22:08:48.810Z,13.27
2023-05-23T22:11:21.718Z,14.90
2023-05-23T22:13:54.370Z,16.30
2023-05-23T22:16:26.661Z,14.93
2023-05-23T22:18:59.794Z,13.77
2023-05-23T22:21:31.953Z,14.73
2023-05-23T22:24:05.325Z,13.88
2023-05-23T22:26:37.395Z,13.77
2023-05-23T22:29:09.942Z,13.68
2023-05-23T22:31:42.432Z,15.38
2023-05-23T22:34:15.485Z,15.03
2023-05-23T22:36:47.926Z,14.05
2023-05-23T22:39:20.925Z,15.82
2023-05-23T22:41:52.841Z,17.33
2023-05-23T22:44:25.472Z,18.70
2023-05-23T22:46:59.751Z,17.73
2023-05-23T22:49:32.941Z,19.70
2023-05-23T22:52:05.279Z,18.50
2023-05-23T22:54:37.892Z,18.60
2023-05-23T22:57:09.825Z,19.77
2023-05-23T22:59:42.330Z,18.13
2023-05-23T23:02:14.269Z,18.58
2023-05-23T23:04:48.539Z,18.30
2023-05-23T23:07:20.645Z,19.48
2023-05-23T23:09:53.550Z,19.50
2023-05-23T23:12:25.465Z,19.00
2023-05-23T23:14:58.036Z,19.15
2023-05-23T23:17:30.009Z,21.35
2023-05-23T23:20:04.574Z,19.98
2023-05-23T23:22:36.591Z,19.70
2023-05-23T23:25:12.806Z,16.43
2023-05-23T23:27:45.282Z,17.48
2023-05-23T23:30:18.148Z,17.48
2023-05-23T23:32:50.233Z,19.33
2023-05-23T23:35:22.564Z,17.15
2023-05-23T23:37:54.861Z,20.47
2023-05-23T23:40:27.450Z,17.30
2023-05-23T23:42:59.766Z,17.60
2023-05-23T23:45:32.294Z,17.00
2023-05-23T23:48:04.382Z,16.45
2023-05-23T23:50:37.500Z,16.53
2023-05-23T23:53:09.484Z,16.75
2023-05-23T23:55:41.993Z,16.13
2023-05-23T23:58:13.888Z,17.60
